createdAt,value
2022-08-23T00:02:31.691Z,101620.09
2022-08-23T00:07:39.092Z,101619.31
2022-08-23T00:12:44.228Z,101627.31
2022-08-23T00:17:50.551Z,101619.25
2022-08-23T00:22:52.357Z,101615.31
2022-08-23T00:27:54.127Z,101617.03
2022-08-23T00:32:58.039Z,101610.63
2022-08-23T00:38:32.262Z,101615.06
2022-08-23T00:43:54.640Z,101610.50
2022-08-23T00:48:57.604Z,101611.63
2022-08-23T00:54:03.416Z,101603.31
2022-08-23T00:59:08.064Z,101597.75
2022-08-23T01:04:13.328Z,101610.09
2022-08-23T01:09:18.978Z,101612.78
2022-08-23T01:15:23.233Z,101607.00
2022-08-23T01:20:26.904Z,101604.50
2022-08-23T01:25:33.402Z,101604.72
2022-08-23T01:30:39.006Z,101602.00
2022-08-23T01:35:50.035Z,101602.63
2022-08-23T01:40:52.291Z,101598.00
2022-08-23T01:45:57.186Z,101598.00
2022-08-23T01:51:00.755Z,101591.97
2022-08-23T01:56:08.466Z,101600.09
2022-08-23T02:01:14.485Z,101599.53
2022-08-23T02:06:16.430Z,101607.88
2022-08-23T02:11:23.549Z,101609.97
2022-08-23T02:16:39.864Z,101608.91
2022-08-23T02:21:47.197Z,101610.19
2022-08-23T02:26:56.745Z,101611.88
2022-08-23T02:32:01.977Z,101614.78
2022-08-23T02:37:10.505Z,101615.00
2022-08-23T02:42:15.034Z,101620.06
2022-08-23T02:47:18.923Z,101616.50
2022-08-23T02:52:32.690Z,101607.97
2022-08-23T02:57:39.583Z,101610.69
2022-08-23T03:02:42.412Z,101613.78
2022-08-23T03:07:46.512Z,101615.47
2022-08-23T03:12:55.093Z,101618.41
2022-08-23T03:17:56.820Z,101617.56
2022-08-23T03:23:06.421Z,101616.75
2022-08-23T03:28:08.849Z,101614.69
2022-08-23T03:33:20.893Z,101609.09
2022-08-23T03:38:28.484Z,101613.53
2022-08-23T03:43:33.115Z,101621.88
2022-08-23T03:48:37.806Z,101623.56
2022-08-23T03:53:46.552Z,101617.50
2022-08-23T03:58:50.173Z,101624.66
2022-08-23T04:03:52.001Z,101631.56
2022-08-23T04:08:59.390Z,101631.75
2022-08-23T04:14:08.233Z,101630.34
2022-08-23T04:19:16.055Z,101634.34
2022-08-23T04:24:34.842Z,101647.47
2022-08-23T04:29:40.075Z,101643.94
2022-08-23T04:34:45.673Z,101657.53
2022-08-23T04:40:12.044Z,101650.72
2022-08-23T04:45:20.102Z,101660.28
2022-08-23T04:50:28.026Z,101660.69
2022-08-23T04:55:52.204Z,101664.25
2022-08-23T05:00:54.665Z,101670.94
2022-08-23T05:06:05.081Z,101671.78
2022-08-23T05:11:16.009Z,101678.91
2022-08-23T05:16:18.168Z,101677.00
2022-08-23T05:21:33.706Z,101671.16
2022-08-23T05:26:38.046Z,101670.72
2022-08-23T05:31:44.216Z,101681.09
2022-08-23T05:36:55.623Z,101679.41
2022-08-23T05:42:03.740Z,101682.50
2022-08-23T05:47:10.491Z,101683.25
2022-08-23T05:52:21.428Z,101689.88
2022-08-23T05:57:25.960Z,101699.19
2022-08-23T06:02:27.726Z,101702.22
2022-08-23T06:07:39.039Z,101702.56
2022-08-23T06:12:51.503Z,101710.00
2022-08-23T06:17:56.582Z,101715.97
2022-08-23T06:22:58.988Z,101723.38
2022-08-23T06:28:04.502Z,101724.53
2022-08-23T06:33:09.159Z,101723.22
2022-08-23T06:38:17.608Z,101727.09
2022-08-23T06:43:28.031Z,101732.84
2022-08-23T06:48:51.006Z,101730.44
2022-08-23T06:53:56.590Z,101724.94
2022-08-23T06:59:16.531Z,101733.16
2022-08-23T07:04:40.408Z,101727.63
2022-08-23T07:10:01.482Z,101737.59
2022-08-23T07:15:05.002Z,101735.19
2022-08-23T07:20:07.462Z,101732.19
2022-08-23T07:25:12.788Z,101741.31
2022-08-23T07:30:23.568Z,101740.41
2022-08-23T07:35:31.118Z,101746.97
2022-08-23T07:40:38.837Z,101740.25
2022-08-23T07:45:45.950Z,101747.16
2022-08-23T07:51:02.271Z,101744.25
2022-08-23T07:56:08.399Z,101764.50
2022-08-23T08:01:30.103Z,101757.22
2022-08-23T08:06:43.970Z,101758.53
2022-08-23T08:11:52.517Z,101761.63
2022-08-23T08:17:01.355Z,101759.59
2022-08-23T08:22:23.275Z,101766.38
2022-08-23T08:28:03.563Z,101763.50
2022-08-23T08:33:09.242Z,101761.84
2022-08-23T08:38:14.749Z,101764.06
2022-08-23T08:43:34.259Z,101756.44
2022-08-23T08:48:41.513Z,101758.53
2022-08-23T08:53:46.243Z,101754.59
2022-08-23T08:58:57.875Z,101754.03
2022-08-23T09:04:03.348Z,101763.88
2022-08-23T09:09:36.914Z,101758.84
2022-08-23T09:14:48.135Z,101773.19
2022-08-23T09:19:52.977Z,101766.81
2022-08-23T09:25:00.713Z,101772.25
2022-08-23T09:30:14.572Z,101774.94
2022-08-23T09:35:24.320Z,101761.78
2022-08-23T09:40:49.274Z,101757.13
2022-08-23T09:45:52.289Z,101765.53
2022-08-23T09:51:11.215Z,101760.44
2022-08-23T09:56:28.794Z,101760.25
2022-08-23T10:01:38.748Z,101761.28
2022-08-23T10:06:46.801Z,101759.97
2022-08-23T10:11:49.136Z,101755.41
2022-08-23T10:17:15.829Z,101748.31
2022-08-23T10:22:30.890Z,101754.84
2022-08-23T10:28:21.846Z,101756.28
2022-08-23T10:33:33.809Z,101746.72
2022-08-23T10:38:47.201Z,101739.13
2022-08-23T10:44:04.817Z,101742.84
2022-08-23T10:49:08.067Z,101733.03
2022-08-23T10:54:46.353Z,101725.50
2022-08-23T10:59:52.896Z,101731.28
2022-08-23T11:05:19.256Z,101736.03
2022-08-23T11:10:55.906Z,101727.56
2022-08-23T11:16:29.572Z,101728.47
2022-08-23T11:21:47.204Z,101724.44
2022-08-23T11:26:52.101Z,101736.81
2022-08-23T11:32:20.103Z,101717.91
2022-08-23T11:37:29.992Z,101716.53
2022-08-23T11:42:38.227Z,101731.66
2022-08-23T11:47:44.600Z,101727.75
2022-08-23T11:52:47.684Z,101727.13
2022-08-23T11:57:57.137Z,101720.16
2022-08-23T12:03:03.301Z,101728.03
2022-08-23T12:08:08.195Z,101717.84
2022-08-23T12:13:19.605Z,101716.44
2022-08-23T12:18:25.334Z,101715.25
2022-08-23T12:23:30.866Z,101712.97
2022-08-23T12:28:43.773Z,101708.19
2022-08-23T12:33:53.865Z,101707.44
2022-08-23T12:38:58.021Z,101710.03
2022-08-23T12:44:08.766Z,101726.03
2022-08-23T12:49:25.849Z,101710.41
2022-08-23T12:54:57.741Z,101707.84
2022-08-23T13:00:21.233Z,101710.00
2022-08-23T13:05:45.948Z,101713.31
2022-08-23T13:10:48.322Z,101721.84
2022-08-23T13:15:52.512Z,101720.31
2022-08-23T13:21:23.057Z,101709.28
2022-08-23T13:26:42.513Z,101702.72
2022-08-23T13:31:52.394Z,101698.75
2022-08-23T13:36:58.802Z,101715.38
2022-08-23T13:42:07.651Z,101706.66
2022-08-23T13:47:22.385Z,101704.69
2022-08-23T13:57:51.129Z,101698.34
2022-08-23T14:02:53.192Z,101706.66
2022-08-23T14:07:56.554Z,101703.41
2022-08-23T14:13:02.215Z,101700.53
2022-08-23T14:18:04.579Z,101696.06
2022-08-23T14:23:12.244Z,101691.25
2022-08-23T14:28:14.381Z,101689.06
2022-08-23T14:33:21.648Z,101691.06
2022-08-23T14:38:28.169Z,101689.53
2022-08-23T14:43:30.565Z,101678.16
2022-08-23T14:48:36.923Z,101673.84
2022-08-23T14:53:38.816Z,101677.69
2022-08-23T14:58:41.895Z,101676.94
2022-08-23T15:03:43.721Z,101677.44
2022-08-23T15:08:53.868Z,101666.91
2022-08-23T15:13:56.794Z,101674.06
2022-08-23T15:19:01.744Z,101674.38
2022-08-23T15:24:04.627Z,101669.97
2022-08-23T15:29:07.545Z,101670.28
2022-08-23T15:34:12.694Z,101663.59
2022-08-23T15:39:19.403Z,101669.03
2022-08-23T15:44:21.517Z,101672.00
2022-08-23T15:49:26.369Z,101669.16
2022-08-23T15:54:32.854Z,101668.69
2022-08-23T15:59:37.657Z,101655.84
2022-08-23T16:04:44.241Z,101662.63
2022-08-23T16:09:48.393Z,101658.38
2022-08-23T16:14:52.559Z,101650.53
2022-08-23T16:19:56.919Z,101653.81
2022-08-23T16:25:01.716Z,101650.75
2022-08-23T16:30:06.079Z,101650.06
2022-08-23T16:35:14.920Z,101649.38
2022-08-23T16:40:16.811Z,101643.81
2022-08-23T16:45:26.034Z,101645.16
2022-08-23T16:50:32.728Z,101655.00
2022-08-23T16:55:35.421Z,101647.91
2022-08-23T17:00:37.400Z,101644.44
2022-08-23T17:05:44.230Z,101645.25
2022-08-23T17:10:49.435Z,101644.22
2022-08-23T17:15:53.441Z,101654.06
2022-08-23T17:21:03.043Z,101658.47
2022-08-23T17:26:04.900Z,101652.34
2022-08-23T17:31:06.691Z,101664.16
2022-08-23T17:36:31.162Z,101651.50
2022-08-23T17:41:40.956Z,101658.25
2022-08-23T17:47:02.967Z,101671.25
2022-08-23T17:52:12.177Z,101673.16
2022-08-23T17:57:16.706Z,101677.81
2022-08-23T18:02:18.679Z,101680.97
2022-08-23T18:07:22.514Z,101688.34
2022-08-23T18:12:31.308Z,101703.47
2022-08-23T18:17:38.773Z,101689.75
2022-08-23T18:22:47.582Z,101694.25
2022-08-23T18:28:07.065Z,101705.25
2022-08-23T18:33:12.934Z,101712.66
2022-08-23T18:38:20.692Z,101705.69
2022-08-23T18:43:26.972Z,101709.88
2022-08-23T18:48:53.538Z,101718.44
2022-08-23T18:53:55.920Z,101723.44
2022-08-23T18:59:01.835Z,101727.84
2022-08-23T19:04:05.220Z,101729.72
2022-08-23T19:09:08.533Z,101735.78
2022-08-23T19:14:19.386Z,101753.59
2022-08-23T19:19:23.044Z,101742.88
2022-08-23T19:24:25.170Z,101751.41
2022-08-23T19:29:31.960Z,101751.38
2022-08-23T19:34:34.563Z,101759.03
2022-08-23T19:39:36.887Z,101766.44
2022-08-23T19:44:43.897Z,101759.22
2022-08-23T19:49:48.479Z,101767.41
2022-08-23T19:54:53.196Z,101771.19
2022-08-23T20:00:00.684Z,101764.28
2022-08-23T20:05:06.748Z,101775.72
2022-08-23T20:10:14.210Z,101790.69
2022-08-23T20:15:18.415Z,101793.09
2022-08-23T20:20:20.407Z,101797.41
2022-08-23T20:25:24.496Z,101809.91
2022-08-23T20:30:26.349Z,101808.47
2022-08-23T20:35:31.627Z,101817.41
2022-08-23T20:40:37.860Z,101811.66
2022-08-23T20:45:41.479Z,101813.47
2022-08-23T20:50:47.926Z,101804.06
2022-08-23T20:55:52.130Z,101818.28
2022-08-23T21:00:56.530Z,101819.50
2022-08-23T21:06:04.029Z,101815.00
2022-08-23T21:11:06.095Z,101827.25
2022-08-23T21:16:08.210Z,101826.91
2022-08-23T21:21:10.209Z,101835.00
2022-08-23T21:26:11.914Z,101831.63
2022-08-23T21:31:19.547Z,101831.81
2022-08-23T21:36:25.248Z,101835.31
2022-08-23T21:41:36.977Z,101832.75
2022-08-23T21:46:41.648Z,101817.75
2022-08-23T21:51:45.622Z,101823.69
2022-08-23T21:56:53.093Z,101818.56
2022-08-23T22:01:58.300Z,101815.50
2022-08-23T22:07:00.757Z,101818.66
2022-08-23T22:12:07.651Z,101821.00
2022-08-23T22:17:12.099Z,101819.16
2022-08-23T22:22:14.979Z,101818.56
2022-08-23T22:27:22.481Z,101820.94
2022-08-23T22:32:27.330Z,101825.13
2022-08-23T22:37:34.648Z,101823.69
2022-08-23T22:42:40.520Z,101813.84
2022-08-23T22:47:42.234Z,101828.09
2022-08-23T22:52:43.997Z,101826.69
2022-08-23T22:57:47.995Z,101826.69
2022-08-23T23:02:54.839Z,101824.44
2022-08-23T23:08:17.746Z,101827.16
2022-08-23T23:13:21.749Z,101823.44
2022-08-23T23:18:26.833Z,101826.91
2022-08-23T23:23:32.006Z,101824.91
2022-08-23T23:28:41.674Z,101818.88
2022-08-23T23:33:43.338Z,101822.94
2022-08-23T23:38:47.483Z,101821.19
2022-08-23T23:43:49.381Z,101822.50
2022-08-23T23:48:54.660Z,101823.00
2022-08-23T23:53:57.760Z,101822.56
2022-08-23T23:59:00.820Z,101824.38
